AirNav   Air Wisconsin Up To $57,000 Bonus
 
 1662 users online  

73MO SSM Health St Mary's Hospital-St Louis Heliport
St Louis, Missouri, USA

GOING TO ST LOUIS?


FAA INFORMATION EFFECTIVE 17 JUNE 2021

Location

FAA Identifier: 73MO
Lat/Long: 38-37-59.8100N 090-18-41.4100W
38-37.996833N 090-18.690167W
38.6332806,-90.3115028
(estimated)
Elevation: 688 ft. / 210 m (estimated)
Variation: 02E (1985)
Time zone: UTC -5 (UTC -6 during Standard Time)
Zip code: 63117

Heliport Operations

Heliport use: Private use, MEDICAL.
Activation date: 07/1982
Control tower: no
ARTCC: KANSAS CITY CENTER
FSS: SAINT LOUIS FLIGHT SERVICE STATION
Attendance: UNATNDD
Segmented circle: no

Heliport Communications

WX ASOS at STL (7 nm N): PHONE 314-890-4790
WX ASOS at CPS (8 nm SE): PHONE 618-332-0001
WX ASOS at SUS (16 nm W): 134.8 (314-890-7255)
WX ASOS at SET (19 nm N): 118.075 (636-250-4590)
WX AWOS-3 at ALN (20 nm NE): 128.0 (618-259-7231)

Nearby radio navigation aids

VOR radial/distance  VOR name  Freq  Var
STLr149/15.8ST LOUIS VORTAC117.4001E
TOYr247/19.5TROY VORTAC116.0004E
FTZr092/31.1FORISTELL VORTAC110.8005E

 
NDB name  Hdg/Dist  Freq  Var  ID
EAVES104/11.422701WFZ ..-. --..
ACORE300/13.635000ECP -.-. .--.
CIVIC MEMORIAL219/19.626301WCVM -.-. ...- --

Heliport Services

Runway Information

Helipad H1

Dimensions: 48 x 48 ft. / 15 x 15 m
Surface: concrete
Latitude: 38-37.996833N
Longitude: 090-18.690167W
Elevation: 688.0 ft.
Traffic pattern: leftleft

Heliport Ownership and Management from official FAA records

Ownership: Privately-owned
Owner: SSM HEALTH CARE ST. LOUIS
6420 CLAYTON RD
ST LOUIS, MO 63117
Phone (314) 989-2155
Manager: MADISON HIMELRIGHT
1015 CORPORATE SQ DR., SUITE 160
ST LOUIS, MO 63132
Phone (314) 989-6134

Additional Remarks

A52-H1 ANTS & BLDGS AROUND PAD.
A33 ROOFTOP HELIPORT.
OWNER DOES NOT WANT ARPT CHARTED.
FOR CD CTC ST LOUIS APCH AT 314-890-1018.

Instrument Procedures

There are no published instrument procedures at 73MO.

Some nearby airports with instrument procedures:

KSTL - St Louis Lambert International Airport (7 nm N)
KCPS - St Louis Downtown Airport (8 nm SE)
1H0 - Creve Coeur Airport (11 nm NW)
KSUS - Spirit of St Louis Airport (16 nm W)
KSET - St Charles County Smartt Airport (19 nm N)
KALN - St Louis Regional Airport (20 nm NE)
 
Loc | Ops | Rwys | IFR | FBO | Links
Com | Nav | Svcs | Stats | Notes
Area around 73MO (SSM Health St Mary's Hospital-St Louis Heliport)
 
Road maps at: MapQuest Bing Google
 
Aerial photo
No photo
 
Sectional chart

 
Airport distance calculator
Flying to SSM Health St Mary's Hospital-St Louis Heliport? Find the distance to fly.

From to 73MO

Sunrise and sunset
Times for 24-Jun-2021
 Local
(UTC-5)
 Zulu
(UTC)
Morning civil twilight05:0710:07
Sunrise05:3910:39
Sunset20:2901:29
Evening civil twilight21:0002:00

Current date and time
Zulu (UTC)  24-Jun-2021 19:00:31
Local (UTC-5)  24-Jun-2021 14:00:31
 
METAR
KSTL 
7nm N 
241851Z 21008KT 10SM FEW050 SCT070 BKN160 OVC250 27/21 A2999 RMK AO2 SLP146 RAE41 TSE22 P0000 T02720211
KCPS 
9nm SE 
241853Z 17005KT 10SM SCT032 28/22 A2998 RMK AO2 SLP149 T02780222
KSUS 
16nm W 
241854Z 14004KT 10SM CLR 25/22 A2996 RMK AO2 RAE31 TSE1758 PRESFR SLP136 P0000 T02500222
KSET 
19nm N 
241854Z AUTO 17008KT 10SM FEW120 26/22 A2996 RMK AO2 RAE1756B08E31 SLP139 P0001 T02610217 $
KALN 
20nm NE 
241847Z 10004KT 7SM SCT030 BKN038 24/24 A3000 RMK LTG DSNT NE
TAF
KSTL 
7nm N 
241723Z 2418/2524 19008KT P6SM VCTS OVC050CB TEMPO 2418/2420 3SM TSRA FM242100 18012G18KT P6SM BKN050 FM250700 19011KT 4SM SHRA BR VCTS OVC040CB FM251300 19010KT P6SM BKN035 FM252000 20011KT P6SM SHRA VCTS BKN045CB
KCPS 
9nm SE 
241723Z 2418/2518 19008KT P6SM OVC050 FM241900 19009KT P6SM VCTS OVC050CB FM242100 18011G18KT P6SM BKN050 FM250800 19010KT 4SM SHRA BR VCTS OVC040CB FM251400 19009KT P6SM BKN035
KSUS 
16nm W 
241723Z 2418/2518 20008KT P6SM VCTS OVC050CB TEMPO 2418/2420 3SM TSRA FM242100 18012KT P6SM BKN050 FM250700 19009KT 4SM SHRA BR VCTS OVC040CB FM251300 19009KT P6SM BKN035
NOTAMs
Click for the latest NOTAMs
NOTAMs are issued by the DoD/FAA and will open in a separate window not controlled by AirNav.

 

 
 

Would you like to see your business listed on this page?

 If your business provides an interesting product or service to pilots, flight crews, aircraft, or users of the SSM Health St Mary's Hospital-St Louis Heliport, you should consider listing it here.  To start the listing process, click on the button below
 
Add a business
 

Other Pages about SSM Health St Mary's Hospital-St Louis Heliport

Update a link
 
Copyright © AirNav, LLC. All rights reserved. Privacy Policy  Contact